createdAt,value
2018-03-14T00:05:56.560Z,12.7
2018-03-14T00:15:55.718Z,13
2018-03-14T00:25:54.941Z,12.4
2018-03-14T00:35:54.253Z,12.6
2018-03-14T00:45:53.326Z,12.5
2018-03-14T00:55:52.914Z,12.7
2018-03-14T01:05:51.874Z,12.6
2018-03-14T01:15:51.013Z,12.7
2018-03-14T01:25:50.230Z,13
2018-03-14T01:35:49.641Z,12.6
2018-03-14T01:45:48.760Z,12.6
2018-03-14T01:55:47.801Z,13
2018-03-14T02:05:46.990Z,12.9
2018-03-14T02:15:46.279Z,12.9
2018-03-14T02:26:00.305Z,12.7
2018-03-14T02:35:44.679Z,12.8
2018-03-14T02:45:43.905Z,12.7
2018-03-14T02:55:43.038Z,12.5
2018-03-14T03:05:42.352Z,12.7
2018-03-14T03:15:41.714Z,12.6
2018-03-14T03:25:40.641Z,12.7
2018-03-14T03:35:40.228Z,12.5
2018-03-14T03:45:39.105Z,13.2
2018-03-14T03:55:38.506Z,12.8
2018-03-14T04:05:37.612Z,12.9
2018-03-14T04:15:36.760Z,12.6
2018-03-14T04:25:35.886Z,13
2018-03-14T04:35:35.285Z,13
2018-03-14T04:45:34.587Z,13
2018-03-14T04:55:33.550Z,12.6
2018-03-14T05:05:32.883Z,13.1
2018-03-14T05:15:31.929Z,12.5
2018-03-14T05:25:31.414Z,12.9
2018-03-14T05:35:30.351Z,12.7
2018-03-14T05:45:30.059Z,12.8
2018-03-14T05:55:28.800Z,12.9
2018-03-14T06:05:28.012Z,13
2018-03-14T06:15:27.178Z,12.9
2018-03-14T06:25:26.535Z,13.3
2018-03-14T06:35:25.617Z,13.4
2018-03-14T06:45:24.848Z,13.2
2018-03-14T06:55:24.236Z,13
2018-03-14T07:05:23.523Z,12.7
2018-03-14T07:15:22.763Z,12.6
2018-03-14T07:25:21.720Z,13.1
2018-03-14T07:35:21.472Z,13
2018-03-14T07:45:20.090Z,12.8
2018-03-14T07:55:19.512Z,13.9
2018-03-14T08:05:18.470Z,14.1
2018-03-14T08:15:17.677Z,13.8
2018-03-14T08:25:17.015Z,14.6
2018-03-14T08:35:16.312Z,14
2018-03-14T08:45:15.319Z,14.3
2018-03-14T08:55:14.635Z,14.5
2018-03-14T09:05:13.792Z,14.1
2018-03-14T09:15:13.075Z,14.2
2018-03-14T09:25:12.216Z,14.5
2018-03-14T09:35:11.674Z,14
2018-03-14T09:45:10.546Z,14.2
2018-03-14T09:55:09.748Z,14.1
2018-03-14T10:05:09.561Z,14.4
2018-03-14T10:15:08.196Z,14.5
2018-03-14T10:25:07.377Z,14
2018-03-14T10:35:06.935Z,14.4
2018-03-14T10:45:06.063Z,14
2018-03-14T10:55:05.123Z,14
2018-03-14T11:05:04.281Z,14.4
2018-03-14T11:15:03.452Z,14.3
2018-03-14T11:25:03.183Z,14.3
2018-03-14T11:35:01.881Z,14.3
2018-03-14T11:45:01.173Z,14.5
2018-03-14T11:55:00.239Z,14.6
2018-03-14T12:04:59.543Z,14.4
2018-03-14T12:14:58.932Z,14.4
2018-03-14T12:24:57.948Z,14.3
2018-03-14T12:34:57.072Z,14.6
2018-03-14T12:44:56.286Z,14
2018-03-14T12:54:55.519Z,14
2018-03-14T13:04:54.895Z,14.6
2018-03-14T13:14:53.951Z,13.5
2018-03-14T13:24:53.186Z,13.6
2018-03-14T13:34:52.332Z,13
2018-03-14T13:44:51.665Z,13.1
2018-03-14T13:54:51.091Z,12.5
2018-03-14T14:04:50.048Z,12.6
2018-03-14T14:14:49.145Z,12.4
2018-03-14T14:24:48.354Z,12.7
2018-03-14T14:34:47.717Z,12.6
2018-03-14T14:44:47.111Z,13.3
2018-03-14T14:54:46.020Z,13.2
2018-03-14T15:04:45.225Z,12.5
2018-03-14T15:14:44.724Z,12.6
2018-03-14T15:24:43.881Z,13
2018-03-14T15:34:42.969Z,13
2018-03-14T15:44:42.045Z,12.7
2018-03-14T15:54:41.516Z,13
2018-03-14T16:04:40.517Z,12.9
2018-03-14T16:14:39.743Z,12.9
2018-03-14T16:24:53.802Z,13
2018-03-14T16:34:38.155Z,12.8
2018-03-14T16:44:37.498Z,12.4
2018-03-14T16:54:36.477Z,13
2018-03-14T17:04:35.691Z,12.6
2018-03-14T17:14:35.275Z,13.1
2018-03-14T17:24:34.179Z,12.9
2018-03-14T17:34:33.599Z,12.7
2018-03-14T17:44:32.659Z,12.9
2018-03-14T17:54:31.781Z,12.8
2018-03-14T18:04:30.975Z,13
2018-03-14T18:14:30.222Z,13.1
2018-03-14T18:24:29.438Z,12.7
2018-03-14T18:34:28.663Z,12.8
2018-03-14T18:44:27.827Z,13.1
2018-03-14T18:54:27.021Z,12.6
2018-03-14T19:04:26.308Z,13.1
2018-03-14T19:14:25.389Z,12.6
2018-03-14T19:24:24.623Z,12.7
2018-03-14T19:34:23.893Z,12.8
2018-03-14T19:44:23.017Z,12.8
2018-03-14T19:54:22.547Z,12.8
2018-03-14T20:04:21.552Z,12.9
2018-03-14T20:14:20.684Z,12.5
2018-03-14T20:24:19.871Z,12.9
2018-03-14T20:34:19.054Z,13.1
2018-03-14T20:44:18.339Z,12.5
2018-03-14T20:54:17.619Z,13
2018-03-14T21:04:16.715Z,13
2018-03-14T21:14:16.310Z,13.1
2018-03-14T21:24:15.099Z,12.6
2018-03-14T21:34:14.303Z,13.1
2018-03-14T21:44:13.596Z,12.9
2018-03-14T21:54:12.742Z,12.6
2018-03-14T22:04:11.951Z,12.7
2018-03-14T22:14:11.229Z,13.1
2018-03-14T22:24:10.340Z,12.7
2018-03-14T22:34:09.875Z,12.6
2018-03-14T22:44:08.883Z,12.8
2018-03-14T22:54:07.965Z,13
2018-03-14T23:04:07.215Z,12.6
2018-03-14T23:14:06.380Z,13
2018-03-14T23:24:05.586Z,13.1
2018-03-14T23:34:05.077Z,13
2018-03-14T23:44:04.045Z,12.4
2018-03-14T23:54:03.242Z,13
